createdAt,value
2019-03-09T00:01:24.472Z,3.60
2019-03-09T00:03:53.367Z,3.42
2019-03-09T00:06:22.224Z,3.15
2019-03-09T00:08:51.096Z,3.33
2019-03-09T00:11:19.969Z,3.75
2019-03-09T00:13:48.811Z,3.12
2019-03-09T00:16:17.911Z,3.10
2019-03-09T00:18:47.039Z,3.52
2019-03-09T00:21:15.911Z,3.15
2019-03-09T00:24:02.892Z,3.58
2019-03-09T00:26:37.395Z,3.50
2019-03-09T00:29:19.976Z,3.22
2019-03-09T00:31:52.887Z,3.35
2019-03-09T00:34:21.760Z,3.33
2019-03-09T00:36:50.639Z,3.08
2019-03-09T00:39:19.485Z,3.33
2019-03-09T00:41:48.340Z,3.17
2019-03-09T00:44:17.216Z,3.15
2019-03-09T00:46:46.219Z,3.50
2019-03-09T00:49:15.315Z,3.17
2019-03-09T00:51:44.247Z,3.33
2019-03-09T00:54:15.106Z,3.80
2019-03-09T00:56:44.223Z,2.92
2019-03-09T00:59:13.095Z,3.15
2019-03-09T01:01:41.939Z,4.37
2019-03-09T01:04:11.036Z,2.90
2019-03-09T01:06:39.890Z,2.92
2019-03-09T01:09:09.157Z,2.83
2019-03-09T01:11:38.317Z,2.62
2019-03-09T01:14:07.197Z,2.20
2019-03-09T01:16:36.053Z,2.33
2019-03-09T01:19:04.989Z,2.50
2019-03-09T01:21:33.840Z,2.45
2019-03-09T01:24:02.692Z,2.65
2019-03-09T01:26:31.563Z,2.42
2019-03-09T01:29:00.435Z,3.35
2019-03-09T01:31:29.527Z,2.47
2019-03-09T01:33:58.380Z,2.27
2019-03-09T01:36:27.259Z,2.00
2019-03-09T01:38:56.185Z,2.60
2019-03-09T01:41:25.043Z,2.58
2019-03-09T01:43:53.907Z,2.58
2019-03-09T01:46:23.015Z,2.65
2019-03-09T01:48:51.936Z,2.50
2019-03-09T01:51:20.796Z,2.52
2019-03-09T01:53:49.656Z,2.62
2019-03-09T01:56:18.523Z,2.30
2019-03-09T01:58:47.371Z,2.55
2019-03-09T02:01:16.243Z,2.35
2019-03-09T02:03:45.120Z,2.30
2019-03-09T02:06:13.981Z,2.42
2019-03-09T02:08:42.856Z,2.10
2019-03-09T02:11:11.948Z,2.52
2019-03-09T02:13:40.831Z,2.42
2019-03-09T02:16:09.687Z,2.92
2019-03-09T02:18:38.776Z,2.50
2019-03-09T02:21:07.713Z,2.30
2019-03-09T02:23:37.355Z,2.52
2019-03-09T02:26:06.216Z,2.58
2019-03-09T02:28:35.316Z,2.62
2019-03-09T02:31:04.188Z,2.10
2019-03-09T02:33:33.292Z,2.17
2019-03-09T02:36:02.157Z,2.40
2019-03-09T02:38:32.649Z,2.87
2019-03-09T02:41:01.521Z,2.75
2019-03-09T02:43:30.444Z,2.70
2019-03-09T02:45:59.323Z,2.37
2019-03-09T02:48:28.178Z,2.60
2019-03-09T02:50:57.094Z,2.55
2019-03-09T02:53:26.335Z,2.30
2019-03-09T02:55:55.189Z,2.50
2019-03-09T02:58:24.049Z,2.20
2019-03-09T03:00:57.515Z,2.37
2019-03-09T03:03:26.457Z,2.52
2019-03-09T03:05:55.308Z,2.92
2019-03-09T03:08:24.163Z,2.70
2019-03-09T03:10:53.025Z,2.60
2019-03-09T03:13:21.882Z,2.90
2019-03-09T03:15:50.748Z,3.00
2019-03-09T03:18:19.595Z,2.90
2019-03-09T03:20:48.475Z,2.85
2019-03-09T03:23:17.319Z,3.25
2019-03-09T03:25:46.199Z,3.05
2019-03-09T03:28:15.078Z,3.10
2019-03-09T03:30:43.948Z,3.25
2019-03-09T03:33:13.040Z,3.17
2019-03-09T03:35:41.907Z,4.08
2019-03-09T03:38:10.775Z,3.67
2019-03-09T03:40:39.658Z,3.20
2019-03-09T03:43:08.522Z,3.75
2019-03-09T03:45:37.375Z,3.47
2019-03-09T03:48:06.252Z,4.08
2019-03-09T03:50:35.099Z,4.00
2019-03-09T03:53:03.982Z,4.00
2019-03-09T03:55:32.842Z,4.55
2019-03-09T03:58:01.684Z,4.50
2019-03-09T04:00:30.549Z,4.12
2019-03-09T04:02:59.468Z,4.30
2019-03-09T04:05:28.509Z,4.20
2019-03-09T04:07:57.359Z,3.90
2019-03-09T04:10:26.527Z,3.72
2019-03-09T04:12:55.473Z,4.03
2019-03-09T04:15:24.384Z,3.75
2019-03-09T04:17:53.256Z,3.95
2019-03-09T04:20:22.116Z,3.83
2019-03-09T04:22:51.250Z,3.92
2019-03-09T04:25:20.097Z,3.60
2019-03-09T04:27:48.947Z,3.70
2019-03-09T04:30:17.847Z,3.70
2019-03-09T04:32:46.687Z,3.80
2019-03-09T04:35:15.784Z,4.12
2019-03-09T04:37:44.655Z,3.75
2019-03-09T04:40:14.180Z,3.12
2019-03-09T04:42:43.064Z,3.50
2019-03-09T04:45:12.575Z,3.80
2019-03-09T04:47:41.675Z,3.33
2019-03-09T04:50:11.521Z,4.03
2019-03-09T04:52:40.391Z,3.83
2019-03-09T04:55:09.617Z,3.70
2019-03-09T04:57:38.486Z,3.80
2019-03-09T05:00:14.981Z,4.35
2019-03-09T05:02:43.847Z,3.67
2019-03-09T05:05:12.931Z,3.47
2019-03-09T05:07:43.343Z,3.67
2019-03-09T05:10:13.744Z,3.33
2019-03-09T05:12:43.496Z,3.80
2019-03-09T05:15:13.315Z,4.30
2019-03-09T05:17:42.172Z,3.30
2019-03-09T05:20:11.046Z,3.37
2019-03-09T05:22:39.895Z,3.62
2019-03-09T05:25:08.799Z,4.03
2019-03-09T05:27:37.675Z,4.08
2019-03-09T05:30:10.980Z,3.85
2019-03-09T05:32:39.863Z,4.15
2019-03-09T05:35:08.792Z,4.40
2019-03-09T05:37:43.146Z,3.70
2019-03-09T05:40:08.269Z,3.83
2019-03-09T05:42:37.143Z,4.78
2019-03-09T05:45:06.971Z,3.45
2019-03-09T05:47:35.848Z,3.70
2019-03-09T05:50:06.123Z,3.70
2019-03-09T05:52:35.948Z,3.75
2019-03-09T05:55:06.351Z,3.77
2019-03-09T05:57:35.207Z,3.65
2019-03-09T06:00:05.891Z,3.70
2019-03-09T06:02:34.745Z,3.50
2019-03-09T06:05:04.283Z,3.42
2019-03-09T06:07:33.158Z,3.40
2019-03-09T06:10:02.053Z,3.05
2019-03-09T06:12:30.904Z,3.40
2019-03-09T06:14:59.992Z,3.30
2019-03-09T06:17:28.859Z,2.92
2019-03-09T06:19:57.716Z,2.90
2019-03-09T06:22:26.579Z,3.30
2019-03-09T06:24:55.427Z,2.75
2019-03-09T06:27:24.291Z,2.75
2019-03-09T06:29:53.152Z,3.02
2019-03-09T06:32:32.290Z,2.83
2019-03-09T06:35:01.158Z,2.67
2019-03-09T06:37:31.228Z,2.90
2019-03-09T06:40:00.202Z,2.40
2019-03-09T06:42:33.637Z,2.47
2019-03-09T06:45:02.488Z,2.17
2019-03-09T06:47:32.428Z,2.20
2019-03-09T06:50:01.282Z,2.72
2019-03-09T06:52:30.138Z,2.47
2019-03-09T06:54:59.227Z,2.20
2019-03-09T06:57:28.084Z,2.70
2019-03-09T06:59:56.935Z,2.20
2019-03-09T07:02:25.792Z,1.95
2019-03-09T07:04:54.655Z,2.27
2019-03-09T07:07:23.526Z,2.15
2019-03-09T07:09:52.382Z,1.92
2019-03-09T07:12:21.237Z,1.60
2019-03-09T07:14:54.307Z,1.72
2019-03-09T07:17:23.168Z,1.47
2019-03-09T07:19:52.051Z,1.25
2019-03-09T07:22:20.904Z,1.00
2019-03-09T07:24:49.814Z,0.98
2019-03-09T07:27:18.699Z,0.80
2019-03-09T07:29:47.552Z,0.70
2019-03-09T07:32:16.655Z,1.17
2019-03-09T07:34:45.516Z,0.70
2019-03-09T07:37:14.383Z,0.98
2019-03-09T07:39:43.255Z,0.80
2019-03-09T07:42:12.103Z,0.80
2019-03-09T07:44:40.963Z,0.70
2019-03-09T07:47:10.054Z,0.65
2019-03-09T07:49:38.916Z,0.72
2019-03-09T07:52:25.735Z,0.90
2019-03-09T07:54:54.599Z,0.90
2019-03-09T07:57:23.454Z,0.72
2019-03-09T07:59:52.336Z,0.90
2019-03-09T08:02:21.191Z,0.65
2019-03-09T08:04:50.072Z,0.90
2019-03-09T08:07:19.006Z,0.60
2019-03-09T08:09:47.887Z,0.60
2019-03-09T08:12:17.008Z,0.60
2019-03-09T08:14:45.871Z,0.90
2019-03-09T08:17:14.736Z,0.90
2019-03-09T08:19:45.520Z,1.00
2019-03-09T08:22:14.377Z,1.00
2019-03-09T08:24:43.237Z,0.95
2019-03-09T08:27:16.612Z,0.90
2019-03-09T08:29:45.480Z,1.00
2019-03-09T08:32:17.512Z,1.17
2019-03-09T08:34:46.370Z,1.00
2019-03-09T08:37:15.464Z,0.78
2019-03-09T08:39:44.352Z,0.78
2019-03-09T08:42:14.824Z,0.80
2019-03-09T08:44:43.677Z,0.70
2019-03-09T08:47:12.524Z,0.60
2019-03-09T08:49:41.379Z,0.75
2019-03-09T08:52:10.260Z,1.00
2019-03-09T08:54:39.115Z,1.02
2019-03-09T08:57:08.015Z,0.80
2019-03-09T08:59:36.934Z,0.72
2019-03-09T09:02:06.750Z,0.93
2019-03-09T09:04:36.805Z,1.00
2019-03-09T09:07:05.670Z,0.90
2019-03-09T09:09:34.515Z,1.00
2019-03-09T09:12:03.400Z,1.17
2019-03-09T09:14:32.488Z,1.10
2019-03-09T09:17:01.567Z,1.10
2019-03-09T09:19:36.904Z,0.80
2019-03-09T09:24:47.659Z,0.80
2019-03-09T09:27:16.599Z,0.78
2019-03-09T09:29:45.452Z,1.20
2019-03-09T09:32:14.311Z,0.88
2019-03-09T09:34:43.163Z,0.95
2019-03-09T09:37:12.039Z,0.80
2019-03-09T09:39:40.889Z,0.80
2019-03-09T09:42:09.811Z,0.90
2019-03-09T09:44:38.691Z,0.90
2019-03-09T09:47:07.554Z,1.27
2019-03-09T09:49:36.404Z,1.00
2019-03-09T09:52:05.271Z,1.00
2019-03-09T09:54:34.127Z,0.90
2019-03-09T09:57:07.392Z,0.90
2019-03-09T09:59:36.251Z,0.90
2019-03-09T10:02:07.055Z,1.17
2019-03-09T10:04:35.908Z,1.02
2019-03-09T10:07:05.004Z,1.00
2019-03-09T10:09:33.877Z,1.00
2019-03-09T10:12:02.729Z,1.00
2019-03-09T10:14:31.583Z,0.85
2019-03-09T10:17:00.444Z,1.07
2019-03-09T10:19:29.306Z,0.90
2019-03-09T10:21:58.391Z,1.02
2019-03-09T10:24:27.245Z,0.88
2019-03-09T10:26:56.105Z,1.10
2019-03-09T10:29:24.955Z,1.10
2019-03-09T10:31:54.685Z,1.40
2019-03-09T10:34:23.549Z,1.10
2019-03-09T10:36:52.410Z,1.22
2019-03-09T10:39:21.287Z,1.10
2019-03-09T10:41:50.378Z,1.05
2019-03-09T10:44:19.227Z,1.10
2019-03-09T10:46:48.105Z,1.02
2019-03-09T10:49:16.969Z,1.25
2019-03-09T10:51:45.831Z,1.20
2019-03-09T10:54:14.685Z,1.40
2019-03-09T10:56:43.580Z,1.50
2019-03-09T10:59:12.480Z,1.52
2019-03-09T11:01:41.337Z,1.45
2019-03-09T11:04:10.216Z,1.47
2019-03-09T11:06:39.073Z,1.70
2019-03-09T11:09:07.927Z,1.70
2019-03-09T11:11:37.263Z,1.57
2019-03-09T11:14:06.115Z,1.90
2019-03-09T11:16:34.963Z,1.80
2019-03-09T11:19:05.038Z,1.60
2019-03-09T11:21:33.891Z,1.55
2019-03-09T11:24:20.474Z,1.80
2019-03-09T11:26:49.327Z,1.90
2019-03-09T11:29:18.200Z,1.72
2019-03-09T11:31:47.057Z,1.70
2019-03-09T11:34:23.619Z,1.77
2019-03-09T11:36:52.475Z,1.65
2019-03-09T11:39:21.341Z,1.60
2019-03-09T11:41:50.195Z,1.90
2019-03-09T11:44:19.053Z,1.70
2019-03-09T11:46:47.916Z,1.95
2019-03-09T11:49:16.776Z,1.65
2019-03-09T11:51:45.639Z,1.67
2019-03-09T11:54:14.491Z,1.90
2019-03-09T11:56:43.351Z,1.90
2019-03-09T11:59:12.208Z,1.70
2019-03-09T12:01:41.051Z,1.80
2019-03-09T12:04:10.158Z,1.80
2019-03-09T12:06:39.011Z,1.77
2019-03-09T12:09:07.879Z,1.90
2019-03-09T12:11:38.367Z,2.00
2019-03-09T12:14:07.475Z,1.70
2019-03-09T12:16:36.344Z,1.95
2019-03-09T12:19:05.455Z,1.72
2019-03-09T12:21:34.549Z,2.02
2019-03-09T12:24:03.403Z,1.80
2019-03-09T12:26:33.339Z,2.05
2019-03-09T12:29:02.199Z,2.10
2019-03-09T12:31:33.245Z,2.10
2019-03-09T12:34:02.097Z,2.20
2019-03-09T12:36:30.964Z,2.02
2019-03-09T12:38:59.816Z,1.75
2019-03-09T12:41:28.911Z,1.92
2019-03-09T12:43:57.825Z,1.70
2019-03-09T12:46:26.692Z,1.50
2019-03-09T12:48:55.543Z,1.52
2019-03-09T12:51:24.412Z,1.80
2019-03-09T12:53:54.362Z,1.55
2019-03-09T12:56:23.461Z,1.72
2019-03-09T12:58:52.317Z,1.70
2019-03-09T13:01:22.265Z,1.40
2019-03-09T13:03:51.147Z,1.40
2019-03-09T13:06:24.070Z,1.65
2019-03-09T13:08:52.929Z,1.47
2019-03-09T13:11:21.791Z,1.27
2019-03-09T13:13:50.877Z,1.17
2019-03-09T13:16:20.676Z,1.47
2019-03-09T13:18:49.529Z,1.50
2019-03-09T13:21:18.379Z,2.02
2019-03-09T13:23:47.237Z,2.40
2019-03-09T13:26:16.112Z,2.27
2019-03-09T13:28:45.191Z,2.52
2019-03-09T13:31:14.057Z,3.12
2019-03-09T13:33:42.917Z,3.58
2019-03-09T13:36:11.764Z,3.67
2019-03-09T13:38:40.627Z,3.08
2019-03-09T13:41:09.475Z,3.12
2019-03-09T13:43:39.250Z,2.70
2019-03-09T13:46:08.108Z,2.45
2019-03-09T13:48:36.973Z,2.40
2019-03-09T13:51:05.828Z,2.30
2019-03-09T13:53:34.689Z,2.17
2019-03-09T13:56:03.535Z,2.33
2019-03-09T13:58:32.647Z,2.40
2019-03-09T14:01:01.562Z,2.50
2019-03-09T14:03:30.415Z,2.35
2019-03-09T14:05:59.276Z,3.10
2019-03-09T14:08:29.096Z,3.27
2019-03-09T14:10:57.979Z,3.00
2019-03-09T14:13:28.040Z,2.80
2019-03-09T14:15:57.125Z,2.70
2019-03-09T14:18:25.991Z,2.70
2019-03-09T14:20:55.079Z,2.87
2019-03-09T14:23:23.927Z,2.72
2019-03-09T14:25:53.040Z,2.67
2019-03-09T14:28:21.881Z,2.30
2019-03-09T14:30:50.739Z,2.27
2019-03-09T14:33:20.784Z,2.17
2019-03-09T14:35:49.840Z,1.90
2019-03-09T14:38:18.695Z,1.85
2019-03-09T14:40:47.552Z,1.80
2019-03-09T14:43:16.410Z,1.80
2019-03-09T14:45:45.268Z,2.20
2019-03-09T14:48:14.129Z,2.52
2019-03-09T14:50:43.219Z,1.90
2019-03-09T14:53:12.083Z,1.70
2019-03-09T14:55:47.901Z,1.75
2019-03-09T14:58:16.759Z,1.52
2019-03-09T15:00:45.615Z,1.70
2019-03-09T15:03:14.498Z,1.80
2019-03-09T15:05:43.358Z,1.75
2019-03-09T15:08:12.212Z,1.77
2019-03-09T15:10:42.239Z,1.70
2019-03-09T15:13:11.095Z,1.30
2019-03-09T15:15:39.960Z,1.35
2019-03-09T15:18:09.043Z,1.55
2019-03-09T15:20:37.891Z,1.02
2019-03-09T15:23:06.757Z,1.20
2019-03-09T15:25:35.609Z,1.30
2019-03-09T15:28:04.467Z,1.20
2019-03-09T15:30:33.560Z,1.12
2019-03-09T15:33:02.423Z,0.93
2019-03-09T15:35:33.194Z,1.40
2019-03-09T15:38:02.049Z,0.90
2019-03-09T15:40:32.200Z,1.00
2019-03-09T15:43:01.301Z,1.30
2019-03-09T15:45:30.156Z,1.12
2019-03-09T15:47:59.251Z,0.95
2019-03-09T15:50:28.193Z,1.10
2019-03-09T15:52:57.039Z,0.93
2019-03-09T15:55:25.911Z,1.17
2019-03-09T15:57:54.771Z,1.15
2019-03-09T16:00:29.631Z,1.50
2019-03-09T16:02:58.502Z,1.40
2019-03-09T16:05:28.618Z,1.30
2019-03-09T16:07:57.766Z,1.62
2019-03-09T16:10:26.709Z,1.67
2019-03-09T16:12:55.869Z,1.70
2019-03-09T16:15:24.723Z,1.40
2019-03-09T16:17:53.816Z,1.50
2019-03-09T16:20:23.346Z,1.85
2019-03-09T16:22:52.204Z,1.62
2019-03-09T16:25:21.304Z,1.82
2019-03-09T16:27:50.192Z,1.87
2019-03-09T16:30:22.492Z,2.10
2019-03-09T16:32:51.361Z,1.82
2019-03-09T16:35:20.211Z,1.90
2019-03-09T16:37:49.642Z,1.90
2019-03-09T16:40:20.063Z,2.37
2019-03-09T16:42:49.161Z,2.35
2019-03-09T16:45:18.089Z,2.47
2019-03-09T16:47:46.952Z,1.98
2019-03-09T16:50:17.346Z,2.20
2019-03-09T16:52:46.199Z,2.15
2019-03-09T16:55:15.078Z,2.27
2019-03-09T16:57:43.937Z,2.05
2019-03-09T17:00:16.707Z,2.30
2019-03-09T17:02:45.577Z,2.20
2019-03-09T17:05:14.808Z,2.35
2019-03-09T17:07:43.964Z,2.45
2019-03-09T17:10:14.094Z,2.20
2019-03-09T17:12:42.939Z,2.08
2019-03-09T17:15:13.344Z,2.20
2019-03-09T17:17:42.511Z,2.40
2019-03-09T17:23:49.359Z,2.90
2019-03-09T17:26:20.086Z,2.37
2019-03-09T17:28:49.519Z,2.60
2019-03-09T17:31:22.219Z,2.60
2019-03-09T17:33:55.208Z,2.15
2019-03-09T17:36:28.442Z,2.65
2019-03-09T17:38:58.240Z,2.25
2019-03-09T17:41:43.775Z,2.40
2019-03-09T17:44:16.080Z,2.37
2019-03-09T17:46:49.087Z,2.20
2019-03-09T17:49:18.520Z,2.50
2019-03-09T17:51:51.351Z,2.35
2019-03-09T17:54:29.726Z,2.65
2019-03-09T17:56:59.989Z,2.95
2019-03-09T17:59:33.089Z,3.10
2019-03-09T18:02:02.509Z,3.02
2019-03-09T18:04:34.628Z,2.45
2019-03-09T18:07:04.147Z,2.45
2019-03-09T18:09:38.566Z,3.00
2019-03-09T18:12:16.867Z,3.52
2019-03-09T18:14:55.895Z,2.67
2019-03-09T18:17:25.256Z,2.75
2019-03-09T18:19:54.518Z,3.90
2019-03-09T18:22:23.900Z,2.80
2019-03-09T18:24:55.979Z,2.67
2019-03-09T18:27:38.624Z,2.90
2019-03-09T18:30:17.094Z,3.12
2019-03-09T18:32:46.457Z,3.00
2019-03-09T18:35:19.049Z,3.00
2019-03-09T18:37:47.954Z,3.67
2019-03-09T18:40:17.411Z,4.45
2019-03-09T18:42:46.283Z,3.85
2019-03-09T18:45:19.443Z,3.27
2019-03-09T18:47:48.324Z,3.00
2019-03-09T18:50:17.423Z,3.80
2019-03-09T18:52:46.752Z,3.45
2019-03-09T18:55:15.649Z,2.90
2019-03-09T18:57:44.780Z,4.20
2019-03-09T19:00:15.419Z,2.83
2019-03-09T19:02:44.373Z,3.35
2019-03-09T19:05:14.643Z,3.20
2019-03-09T19:07:43.576Z,3.45
2019-03-09T19:10:16.039Z,2.80
2019-03-09T19:12:44.903Z,3.95
2019-03-09T19:15:14.836Z,3.40
2019-03-09T19:17:43.936Z,3.05
2019-03-09T19:20:19.843Z,3.42
2019-03-09T19:22:48.715Z,3.50
2019-03-09T19:25:17.575Z,3.98
2019-03-09T19:27:46.428Z,3.70
2019-03-09T19:30:16.312Z,3.77
2019-03-09T19:32:45.176Z,4.03
2019-03-09T19:35:14.103Z,3.58
2019-03-09T19:37:42.993Z,3.67
2019-03-09T19:40:13.018Z,3.80
2019-03-09T19:42:42.843Z,3.87
2019-03-09T19:45:15.442Z,3.98
2019-03-09T19:47:44.289Z,3.55
2019-03-09T19:50:17.046Z,3.98
2019-03-09T19:52:46.032Z,5.03
2019-03-09T19:55:14.986Z,4.15
2019-03-09T19:57:43.890Z,4.10
2019-03-09T20:00:14.570Z,4.08
2019-03-09T20:02:43.423Z,4.30
2019-03-09T20:05:14.328Z,3.72
2019-03-09T20:07:43.797Z,4.33
2019-03-09T20:10:13.536Z,4.12
2019-03-09T20:12:42.765Z,4.95
2019-03-09T20:15:13.168Z,5.00
2019-03-09T20:17:45.650Z,5.78
2019-03-09T20:20:17.378Z,6.03
2019-03-09T20:22:46.699Z,5.60
2019-03-09T20:25:16.247Z,6.72
2019-03-09T20:27:45.207Z,6.83
2019-03-09T20:30:17.407Z,7.22
2019-03-09T20:32:47.144Z,7.80
2019-03-09T20:35:16.229Z,8.58
2019-03-09T20:37:45.158Z,9.80
2019-03-09T20:40:14.743Z,10.95
2019-03-09T20:42:44.938Z,10.60
2019-03-09T20:45:21.298Z,9.33
2019-03-09T20:47:50.171Z,8.50
2019-03-09T20:50:21.577Z,6.30
2019-03-09T20:52:50.530Z,5.25
2019-03-09T20:55:20.487Z,5.60
2019-03-09T21:01:51.885Z,6.17
2019-03-09T21:04:22.442Z,6.45
2019-03-09T21:06:51.375Z,6.65
2019-03-09T21:09:21.161Z,7.40
2019-03-09T21:11:50.104Z,5.78
2019-03-09T21:14:18.963Z,5.75
2019-03-09T21:16:49.032Z,5.50
2019-03-09T21:19:17.890Z,5.70
2019-03-09T21:21:46.783Z,6.20
2019-03-09T21:24:15.635Z,6.10
2019-03-09T21:26:45.568Z,5.70
2019-03-09T21:29:14.432Z,5.58
2019-03-09T21:31:43.308Z,5.72
2019-03-09T21:34:12.172Z,6.33
2019-03-09T21:36:41.317Z,5.97
2019-03-09T21:39:10.304Z,5.60
2019-03-09T21:41:40.443Z,5.70
2019-03-09T21:44:15.375Z,6.00
2019-03-09T21:46:46.119Z,6.25
2019-03-09T21:49:15.220Z,6.75
2019-03-09T21:51:48.535Z,9.55
2019-03-09T21:54:19.846Z,9.98
2019-03-09T21:56:53.024Z,8.55
2019-03-09T21:59:22.132Z,6.95
2019-03-09T22:01:50.999Z,6.95
2019-03-09T22:04:20.037Z,7.10
2019-03-09T22:06:48.895Z,6.70
2019-03-09T22:09:17.793Z,6.47
2019-03-09T22:11:47.272Z,6.10
2019-03-09T22:14:16.204Z,6.22
2019-03-09T22:16:45.105Z,7.12
2019-03-09T22:19:13.976Z,8.10
2019-03-09T22:21:46.075Z,6.53
2019-03-09T22:24:15.217Z,7.35
2019-03-09T22:26:45.671Z,7.53
2019-03-09T22:29:15.180Z,6.62
2019-03-09T22:31:44.051Z,6.45
2019-03-09T22:34:12.909Z,6.03
2019-03-09T22:36:42.932Z,7.25
2019-03-09T22:39:11.854Z,5.83
2019-03-09T22:41:41.551Z,6.80
2019-03-09T22:44:11.364Z,5.70
2019-03-09T22:46:40.284Z,5.12
2019-03-09T22:49:13.442Z,7.22
2019-03-09T22:51:45.876Z,5.35
2019-03-09T22:54:20.003Z,5.33
2019-03-09T22:59:17.063Z,5.17
2019-03-09T23:01:50.479Z,4.92
2019-03-09T23:04:19.947Z,5.30
2019-03-09T23:06:49.070Z,4.97
2019-03-09T23:09:18.489Z,5.37
2019-03-09T23:11:47.360Z,5.35
2019-03-09T23:14:16.232Z,5.17
2019-03-09T23:16:45.099Z,4.78
2019-03-09T23:19:13.974Z,4.70
2019-03-09T23:21:42.844Z,4.60
2019-03-09T23:24:11.739Z,4.95
2019-03-09T23:26:40.679Z,4.67
2019-03-09T23:29:09.549Z,5.03
2019-03-09T23:31:38.490Z,4.65
2019-03-09T23:34:07.343Z,4.55
2019-03-09T23:36:36.211Z,4.62
2019-03-09T23:39:09.005Z,5.25
2019-03-09T23:41:38.101Z,6.03
2019-03-09T23:44:06.972Z,5.12
2019-03-09T23:46:35.859Z,4.45
2019-03-09T23:49:04.745Z,4.85
2019-03-09T23:51:33.863Z,5.42
2019-03-09T23:54:02.967Z,5.33
2019-03-09T23:56:31.840Z,5.17
2019-03-09T23:59:01.150Z,4.50
